Time;durP1;ratioP1;P1;durP2;ratioP2;P2;SDS_P1;SDS_P2;PMS_P1;PMS_P2;Temp;Humidity;BMP_temperature;BMP_pressure;BME280_temperature;BME280_humidity;BME280_pressure;Samples;Min_cycle;Max_cycle;Signal;HPM_P1;HPM_P2
2021/12/06 00:01:14;;;;;;;15.45;9.38;;;;;;;4.98;100.00;101077.09;4953930;28;20047;-48
2021/12/06 00:04:15;;;;;;;12.65;9.00;;;;;;;5.02;100.00;101089.06;4953643;29;20058;-49
2021/12/06 00:07:06;;;;;;;13.38;8.93;;;;;;;5.00;99.98;101093.88;4953416;28;20047;-47
2021/12/06 00:09:54;;;;;;;13.20;8.88;;;;;;;4.99;100.00;101100.34;4957131;28;20043;-47
2021/12/06 00:12:43;;;;;;;12.15;9.10;;;;;;;4.96;99.88;101099.97;4953846;28;20090;-48
2021/12/06 00:15:19;;;;;;;12.07;8.60;;;;;;;4.93;99.86;101103.94;4952012;29;20114;-49
2021/12/06 00:18:06;;;;;;;12.98;8.63;;;;;;;4.93;100.00;101095.00;4952925;28;20054;-46
2021/12/06 00:20:54;;;;;;;11.15;8.40;;;;;;;4.94;100.00;101107.47;4954850;28;20094;-48
2021/12/06 00:23:42;;;;;;;11.73;8.43;;;;;;;4.93;99.71;101103.94;4941769;29;20043;-48
2021/12/06 00:26:30;;;;;;;13.93;8.65;;;;;;;4.94;99.98;101097.47;4953011;29;20055;-50
2021/12/06 00:29:19;;;;;;;11.90;8.73;;;;;;;4.96;99.83;101097.28;4953152;29;20048;-48
2021/12/06 00:32:07;;;;;;;13.68;8.88;;;;;;;4.94;99.56;101102.06;4956984;28;20521;-49
2021/12/06 00:34:54;;;;;;;11.32;8.45;;;;;;;4.94;99.71;101110.16;4957042;28;20429;-49
2021/12/06 00:37:44;;;;;;;12.40;8.57;;;;;;;4.97;99.99;101113.22;4952445;28;20054;-46
2021/12/06 00:40:39;;;;;;;12.90;8.82;;;;;;;4.96;99.50;101111.59;4953302;28;20114;-51
2021/12/06 00:43:27;;;;;;;13.02;9.73;;;;;;;4.95;99.69;101126.13;4953367;28;20070;-51
2021/12/06 00:46:15;;;;;;;13.38;9.30;;;;;;;4.91;99.21;101124.94;4957137;29;20055;-50
2021/12/06 00:49:03;;;;;;;12.00;8.68;;;;;;;4.89;99.45;101116.22;4956412;29;20130;-54
2021/12/06 00:51:51;;;;;;;12.43;8.52;;;;;;;4.93;99.74;101130.09;4954864;28;20133;-53
2021/12/06 00:54:39;;;;;;;14.75;8.65;;;;;;;4.93;99.64;101130.94;4953894;29;20051;-51
2021/12/06 00:57:26;;;;;;;12.15;9.02;;;;;;;4.93;99.50;101132.78;4957066;29;20117;-51
2021/12/06 01:00:18;;;;;;;12.25;9.02;;;;;;;4.93;99.56;101155.25;4954964;29;20070;-48
2021/12/06 01:02:48;;;;;;;14.10;9.00;;;;;;;4.93;99.64;101157.94;4963086;28;20043;-44
2021/12/06 01:05:36;;;;;;;14.00;9.75;;;;;;;4.94;99.69;101166.88;4959383;28;20055;-52
2021/12/06 01:08:24;;;;;;;13.55;9.70;;;;;;;4.93;99.59;101167.91;4955744;29;20047;-48
2021/12/06 01:11:13;;;;;;;15.63;10.32;;;;;;;4.91;99.26;101173.53;4956555;28;20055;-48
2021/12/06 01:14:01;;;;;;;12.88;9.55;;;;;;;4.91;99.49;101182.47;4956883;28;20051;-48
2021/12/06 01:16:48;;;;;;;12.27;9.70;;;;;;;4.92;99.57;101185.97;4956818;28;20130;-48
2021/12/06 01:19:37;;;;;;;12.73;9.20;;;;;;;4.93;99.40;101187.66;4955490;29;20472;-46
2021/12/06 01:22:39;;;;;;;13.35;10.07;;;;;;;4.88;99.45;101182.06;4983570;28;20047;-47
2021/12/06 01:25:38;;;;;;;13.68;10.48;;;;;;;4.86;99.98;101184.19;4941787;29;20475;-49
2021/12/06 01:31:34;;;;;;;14.52;10.57;;;;;;;4.84;99.68;101175.47;4957028;28;20047;-48
2021/12/06 01:40:27;;;;;;;15.52;10.60;;;;;;;4.67;100.00;101178.72;4956019;29;20055;-48
2021/12/06 01:43:14;;;;;;;14.60;10.68;;;;;;;4.69;100.00;101187.44;4968509;28;20076;-48
2021/12/06 01:46:02;;;;;;;14.65;10.57;;;;;;;4.75;100.00;101187.59;4954996;29;20047;-48
2021/12/06 01:48:51;;;;;;;14.95;10.85;;;;;;;4.79;100.00;101192.31;4952311;29;20129;-49
2021/12/06 01:51:39;;;;;;;14.15;10.48;;;;;;;4.85;100.00;101204.94;4955002;29;20047;-49
2021/12/06 01:54:27;;;;;;;13.88;10.77;;;;;;;4.82;100.00;101201.84;4957221;28;20055;-47
2021/12/06 01:57:16;;;;;;;14.13;10.70;;;;;;;4.84;100.00;101194.38;4955145;29;20043;-48
2021/12/06 02:00:14;;;;;;;15.75;11.65;;;;;;;4.84;99.96;101205.16;4954843;29;20057;-52
2021/12/06 02:03:07;;;;;;;14.57;11.25;;;;;;;4.79;99.50;101207.72;4946057;28;20137;-50
2021/12/06 02:05:58;;;;;;;14.93;10.70;;;;;;;4.75;99.70;101209.19;4954593;29;20051;-51
2021/12/06 02:08:48;;;;;;;15.30;11.10;;;;;;;4.73;100.00;101213.97;4954610;29;20048;-48
2021/12/06 02:11:38;;;;;;;16.13;11.38;;;;;;;4.78;100.00;101211.44;4954115;29;20057;-48
2021/12/06 02:17:37;;;;;;;17.35;12.07;;;;;;;4.78;99.65;101206.03;4955344;28;20051;-51
2021/12/06 02:20:28;;;;;;;13.57;10.85;;;;;;;4.66;99.67;101206.72;4956494;28;20139;-48
2021/12/06 02:23:18;;;;;;;17.85;11.57;;;;;;;4.58;100.00;101215.13;4956083;28;20059;-53
2021/12/06 02:26:06;;;;;;;16.13;11.80;;;;;;;4.58;100.00;101214.28;4954704;29;20051;-52
2021/12/06 02:28:53;;;;;;;16.08;11.82;;;;;;;4.55;100.00;101212.84;4954443;28;20043;-52
2021/12/06 02:31:42;;;;;;;16.88;12.27;;;;;;;4.57;100.00;101226.13;4951188;29;20047;-49
2021/12/06 02:34:29;;;;;;;14.93;11.75;;;;;;;4.59;100.00;101219.44;4955708;28;20058;-48
2021/12/06 02:37:23;;;;;;;17.80;12.20;;;;;;;4.56;100.00;101224.47;4941893;29;20058;-48
2021/12/06 02:40:28;;;;;;;19.45;12.43;;;;;;;4.58;100.00;101230.47;4953417;29;20513;-51
2021/12/06 02:43:16;;;;;;;15.80;11.55;;;;;;;4.58;100.00;101227.78;4940595;29;20182;-49
2021/12/06 02:46:04;;;;;;;16.00;12.18;;;;;;;4.63;100.00;101234.16;4953963;28;20087;-49
2021/12/06 02:48:52;;;;;;;16.75;12.45;;;;;;;4.66;100.00;101236.44;4954826;28;20051;-48
2021/12/06 02:51:40;;;;;;;18.70;12.32;;;;;;;4.67;100.00;101232.69;4951581;29;20074;-49
2021/12/06 02:54:28;;;;;;;17.90;12.65;;;;;;;4.72;100.00;101255.50;4943349;28;20486;-50
2021/12/06 02:57:21;;;;;;;16.25;12.43;;;;;;;4.77;100.00;101255.69;4954875;28;20102;-51
2021/12/06 03:00:10;;;;;;;17.05;12.38;;;;;;;4.82;100.00;101255.84;4954561;29;20121;-49
2021/12/06 03:02:58;;;;;;;16.70;12.85;;;;;;;4.84;100.00;101253.75;4942448;29;20054;-48
2021/12/06 03:05:50;;;;;;;15.45;11.98;;;;;;;4.84;99.76;101249.19;4965497;28;20047;-53
2021/12/06 03:08:47;;;;;;;18.38;12.90;;;;;;;4.86;99.96;101257.06;4951136;28;20051;-49
2021/12/06 03:11:43;;;;;;;16.60;12.35;;;;;;;4.87;99.84;101253.31;4951078;29;20055;-51
2021/12/06 03:14:34;;;;;;;17.60;12.30;;;;;;;4.88;99.76;101249.56;4954555;28;20090;-47
2021/12/06 03:17:28;;;;;;;15.30;12.43;;;;;;;4.91;99.74;101262.63;4943648;28;20054;-46
2021/12/06 03:20:17;;;;;;;16.13;12.43;;;;;;;4.88;99.33;101255.81;4953321;28;20051;-48
2021/12/06 03:23:05;;;;;;;16.23;12.43;;;;;;;4.84;99.28;101256.47;4954318;29;20062;-47
2021/12/06 03:25:53;;;;;;;18.80;12.95;;;;;;;4.84;99.68;101259.16;4954180;28;20110;-48
2021/12/06 03:28:43;;;;;;;17.00;13.20;;;;;;;4.85;99.62;101258.09;4954164;29;20127;-50
2021/12/06 03:31:32;;;;;;;17.02;12.90;;;;;;;4.86;99.65;101265.19;4952390;29;20106;-52
2021/12/06 03:34:26;;;;;;;16.92;13.40;;;;;;;4.88;99.65;101260.34;4980305;28;20055;-49
2021/12/06 03:37:16;;;;;;;17.45;13.63;;;;;;;4.89;99.08;101268.25;4941422;28;20051;-48
2021/12/06 03:40:04;;;;;;;18.08;13.52;;;;;;;4.86;99.10;101260.59;4953509;29;20050;-48
2021/12/06 03:42:53;;;;;;;17.27;13.13;;;;;;;4.82;99.01;101266.66;4952842;28;20485;-49
2021/12/06 03:45:40;;;;;;;18.85;13.85;;;;;;;4.76;98.90;101267.50;4954193;28;20122;-50
2021/12/06 03:48:29;;;;;;;16.75;13.30;;;;;;;4.70;99.12;101269.22;4952890;28;20055;-49
2021/12/06 03:51:18;;;;;;;17.27;13.38;;;;;;;4.71;99.84;101268.16;4953838;29;20093;-47
2021/12/06 03:54:08;;;;;;;15.70;13.43;;;;;;;4.73;99.77;101273.34;4953410;29;20113;-48
2021/12/06 03:56:57;;;;;;;20.63;13.63;;;;;;;4.74;100.00;101281.25;4954495;28;20050;-49
2021/12/06 03:59:45;;;;;;;20.30;13.75;;;;;;;4.75;100.00;101284.75;4950536;28;20047;-52
2021/12/06 04:02:33;;;;;;;20.15;14.57;;;;;;;4.75;99.88;101272.09;4952575;28;20066;-50
2021/12/06 04:05:22;;;;;;;16.73;12.55;;;;;;;4.74;99.71;101273.16;4953822;28;20054;-47
2021/12/06 04:08:10;;;;;;;17.80;13.40;;;;;;;4.71;99.33;101270.84;4949601;28;20498;-47
2021/12/06 04:10:59;;;;;;;17.40;13.80;;;;;;;4.66;99.70;101274.22;4950757;29;20055;-49
2021/12/06 04:13:47;;;;;;;19.30;13.95;;;;;;;4.62;100.00;101267.63;4953450;28;20047;-48
2021/12/06 04:16:36;;;;;;;19.42;14.50;;;;;;;4.59;100.00;101267.22;4952464;28;20130;-47
2021/12/06 04:19:26;;;;;;;18.30;13.70;;;;;;;4.60;100.00;101275.09;4952413;29;20087;-48
2021/12/06 04:22:14;;;;;;;17.85;14.35;;;;;;;4.63;100.00;101274.66;4949703;29;20059;-51
2021/12/06 04:25:05;;;;;;;18.60;13.80;;;;;;;4.63;100.00;101287.31;4953613;29;20090;-48
2021/12/06 04:27:59;;;;;;;18.20;13.70;;;;;;;4.62;100.00;101280.28;4951105;28;20048;-49
2021/12/06 04:30:50;;;;;;;18.20;13.65;;;;;;;4.62;100.00;101280.28;4949809;29;20509;-48
2021/12/06 04:33:39;;;;;;;18.75;13.57;;;;;;;4.61;100.00;101282.13;4951917;29;20054;-50
2021/12/06 04:36:27;;;;;;;17.75;14.07;;;;;;;4.59;100.00;101283.41;4952356;28;20055;-48
2021/12/06 04:39:18;;;;;;;17.70;13.40;;;;;;;4.58;100.00;101276.34;4940124;29;20051;-51
2021/12/06 04:42:07;;;;;;;18.15;13.52;;;;;;;4.62;100.00;101267.63;4952171;28;20155;-49
2021/12/06 04:44:55;;;;;;;19.40;14.27;;;;;;;4.63;100.00;101273.84;4968575;28;20047;-49
2021/12/06 04:47:43;;;;;;;19.48;14.45;;;;;;;4.64;100.00;101273.63;4957863;28;20050;-47
2021/12/06 04:50:32;;;;;;;20.25;14.13;;;;;;;4.67;100.00;101275.88;4938466;29;20111;-49
2021/12/06 04:53:28;;;;;;;17.25;14.50;;;;;;;4.70;100.00;101282.72;4949999;29;20443;-50
2021/12/06 04:56:36;;;;;;;19.92;14.55;;;;;;;4.68;100.00;101277.53;4949732;29;20547;-50
2021/12/06 04:59:32;;;;;;;20.27;14.57;;;;;;;4.68;100.00;101288.31;4950649;28;20138;-47
2021/12/06 05:02:21;;;;;;;;;;;;;;;4.67;100.00;101289.38;4951870;29;20063;-49
2021/12/06 05:05:13;;;;;;;20.98;14.90;;;;;;;4.66;100.00;101290.41;4941963;29;19929;-45
2021/12/06 05:08:07;;;;;;;19.73;14.80;;;;;;;4.67;100.00;101302.06;4952802;28;20050;-48
2021/12/06 05:10:57;;;;;;;19.67;14.90;;;;;;;4.69;100.00;101303.50;4949606;28;20131;-49
2021/12/06 05:13:48;;;;;;;24.55;15.65;;;;;;;4.70;100.00;101309.72;4949772;29;20070;-52
2021/12/06 05:16:37;;;;;;;19.77;14.77;;;;;;;4.68;100.00;101299.13;4951628;29;20502;-49
2021/12/06 05:19:25;;;;;;;20.58;15.30;;;;;;;4.65;99.54;101299.56;4953017;28;20055;-50
2021/12/06 05:22:13;;;;;;;21.77;15.32;;;;;;;4.62;99.55;101300.00;4951830;28;20059;-51
2021/12/06 05:25:02;;;;;;;19.48;14.98;;;;;;;4.62;99.90;101305.41;4949798;29;20143;-52
2021/12/06 05:27:52;;;;;;;21.58;16.15;;;;;;;4.64;99.94;101313.25;4942468;29;20055;-49
2021/12/06 05:30:42;;;;;;;19.88;15.88;;;;;;;4.64;99.82;101319.50;4955253;28;20047;-50
2021/12/06 05:33:31;;;;;;;21.63;16.42;;;;;;;4.61;99.62;101319.91;4954925;29;20052;-52
2021/12/06 05:36:20;;;;;;;21.60;16.15;;;;;;;4.59;99.57;101322.00;4955985;29;20055;-55
2021/12/06 05:38:59;;;;;;;23.70;17.50;;;;;;;4.58;99.18;101327.63;4955928;28;20091;-51
2021/12/06 05:41:48;;;;;;;20.25;15.77;;;;;;;4.60;99.62;101318.28;4955883;29;20082;-47
2021/12/06 05:44:36;;;;;;;19.75;15.57;;;;;;;4.62;99.56;101327.00;4955847;29;20063;-53
2021/12/06 05:47:23;;;;;;;19.90;15.70;;;;;;;4.63;98.69;101323.22;4955967;29;20431;-54
2021/12/06 05:50:11;;;;;;;20.08;15.50;;;;;;;4.61;98.37;101314.53;4956584;28;20051;-51
2021/12/06 05:52:59;;;;;;;22.70;15.70;;;;;;;4.58;98.18;101304.16;4944066;29;20048;-52
2021/12/06 05:55:47;;;;;;;21.50;16.20;;;;;;;4.54;97.54;101308.34;4955595;28;20051;-54
2021/12/06 05:58:35;;;;;;;22.80;16.33;;;;;;;4.50;97.49;101307.13;4955748;29;20063;-52
2021/12/06 06:01:29;;;;;;;19.80;16.60;;;;;;;4.47;97.30;101307.53;4958844;28;20051;-49
2021/12/06 06:04:17;;;;;;;23.20;15.77;;;;;;;4.47;96.79;101312.94;4955026;29;20047;-49
2021/12/06 06:07:04;;;;;;;21.55;14.88;;;;;;;4.47;96.63;101312.94;4981728;28;20058;-53
2021/12/06 06:09:52;;;;;;;21.27;15.32;;;;;;;4.46;96.29;101317.50;4955472;29;20055;-51
2021/12/06 06:12:40;;;;;;;27.38;16.00;;;;;;;4.42;96.44;101321.66;4958234;28;20047;-53
2021/12/06 06:15:29;;;;;;;23.83;16.45;;;;;;;4.39;96.38;101326.69;4955530;29;20118;-55
2021/12/06 06:18:17;;;;;;;25.55;16.65;;;;;;;4.37;96.75;101332.28;4954572;29;20055;-50
2021/12/06 06:21:05;;;;;;;23.38;16.65;;;;;;;4.35;96.32;101334.38;4954529;28;20051;-55
2021/12/06 06:23:52;;;;;;;24.25;17.65;;;;;;;4.33;96.78;101332.94;4958124;28;20047;-51
2021/12/06 06:26:40;;;;;;;23.58;16.30;;;;;;;4.34;96.52;101337.28;4955426;29;20102;-49
2021/12/06 06:29:28;;;;;;;21.85;16.65;;;;;;;4.30;96.12;101333.34;4269451;28;10000290;-54
2021/12/06 06:32:15;;;;;;;20.83;16.10;;;;;;;4.27;96.30;101340.84;4957776;28;20054;-54
2021/12/06 06:35:04;;;;;;;19.08;13.40;;;;;;;4.31;96.29;101337.72;4947489;29;20134;-49
2021/12/06 06:37:52;;;;;;;22.60;16.65;;;;;;;4.35;96.51;101347.84;4952938;28;20051;-51
2021/12/06 06:40:39;;;;;;;15.52;10.77;;;;;;;4.41;96.98;101356.97;4951627;28;20457;-51
2021/12/06 06:43:27;;;;;;;16.05;10.98;;;;;;;4.47;97.53;101351.56;4959449;28;20465;-50
2021/12/06 06:46:15;;;;;;;18.77;14.27;;;;;;;4.52;97.61;101347.38;4952117;29;20051;-49
2021/12/06 06:49:04;;;;;;;21.20;15.48;;;;;;;4.49;97.26;101354.03;4955658;28;20359;-48
2021/12/06 06:51:52;;;;;;;19.65;16.25;;;;;;;4.45;97.46;101347.44;4952512;29;20058;-50
2021/12/06 06:54:39;;;;;;;18.95;15.80;;;;;;;4.45;97.82;101355.53;4952124;28;20055;-51
2021/12/06 06:57:27;;;;;;;22.23;17.48;;;;;;;4.43;97.67;101354.91;4952251;29;20055;-50
2021/12/06 07:00:19;;;;;;;25.92;19.45;;;;;;;4.42;97.82;101356.75;4951973;29;20501;-51
2021/12/06 07:03:08;;;;;;;20.98;16.85;;;;;;;4.43;98.48;101366.50;4954492;28;20060;-53
2021/12/06 07:05:56;;;;;;;21.17;15.93;;;;;;;4.46;98.62;101366.06;4952520;29;20052;-50
2021/12/06 07:08:43;;;;;;;38.92;28.83;;;;;;;4.53;99.95;101362.53;4945878;29;20043;-54
2021/12/06 07:11:31;;;;;;;41.20;28.23;;;;;;;4.60;99.78;101358.75;4951125;28;20081;-49
2021/12/06 07:14:19;;;;;;;39.42;27.15;;;;;;;4.64;99.58;101360.00;4954293;28;20055;-49
2021/12/06 07:17:07;;;;;;;30.25;22.65;;;;;;;4.67;99.49;101372.22;4942794;29;20051;-49
2021/12/06 07:19:55;;;;;;;22.90;17.40;;;;;;;4.68;98.88;101366.59;4954183;29;20082;-51
2021/12/06 07:22:42;;;;;;;22.80;15.98;;;;;;;4.68;98.15;101372.00;4953964;28;20490;-50
2021/12/06 07:25:31;;;;;;;21.92;15.32;;;;;;;4.68;98.58;101377.38;4955017;28;20138;-51
2021/12/06 07:28:19;;;;;;;19.60;14.73;;;;;;;4.67;98.06;101383.03;4953692;29;20062;-53
2021/12/06 07:31:07;;;;;;;16.70;12.10;;;;;;;4.64;97.38;101386.97;4945470;28;20074;-49
2021/12/06 07:33:55;;;;;;;15.30;11.95;;;;;;;4.57;97.03;101391.59;4953851;28;20051;-50
2021/12/06 07:36:42;;;;;;;15.45;11.95;;;;;;;4.53;97.30;101393.03;4950015;29;20114;-48
2021/12/06 07:39:30;;;;;;;19.80;13.48;;;;;;;4.52;97.26;101402.16;4946763;29;20051;-50
2021/12/06 07:42:18;;;;;;;16.75;12.32;;;;;;;4.44;96.87;101397.00;4950594;29;20249;-49
2021/12/06 07:45:09;;;;;;;16.40;12.85;;;;;;;4.37;96.77;101402.44;4954409;28;20048;-50
2021/12/06 07:47:56;;;;;;;18.05;13.90;;;;;;;4.35;97.21;101403.69;4944671;28;20516;-51
2021/12/06 07:50:44;;;;;;;19.73;13.93;;;;;;;4.32;97.97;101402.25;4952825;28;20059;-50
2021/12/06 07:53:33;;;;;;;21.35;14.00;;;;;;;4.31;97.93;101405.16;4953865;28;20055;-51
2021/12/06 07:56:21;;;;;;;19.25;14.50;;;;;;;4.33;98.37;101403.06;4944745;28;20044;-50
2021/12/06 07:59:09;;;;;;;22.08;16.50;;;;;;;4.34;98.01;101404.72;4957310;28;20150;-50
2021/12/06 08:01:57;;;;;;;20.80;15.48;;;;;;;4.30;98.22;101390.81;4953621;29;20051;-50
2021/12/06 08:04:48;;;;;;;19.23;14.90;;;;;;;4.33;98.51;101394.97;4947783;28;20134;-50
2021/12/06 08:07:35;;;;;;;17.63;14.00;;;;;;;4.34;98.33;101394.78;4953007;28;20056;-50
2021/12/06 08:10:23;;;;;;;17.27;12.85;;;;;;;4.36;98.21;101391.88;4953363;29;20051;-50
2021/12/06 08:13:13;;;;;;;17.77;14.25;;;;;;;4.38;98.66;101384.41;4952840;29;20050;-49
2021/12/06 08:16:04;;;;;;;16.15;13.55;;;;;;;4.36;98.19;101384.59;4954141;28;20047;-51
2021/12/06 08:18:52;;;;;;;18.13;14.45;;;;;;;4.34;98.09;101380.47;4943040;29;20043;-50
2021/12/06 08:21:40;;;;;;;18.58;14.32;;;;;;;4.31;98.39;101376.31;4952382;28;20050;-51
2021/12/06 08:24:28;;;;;;;18.30;13.63;;;;;;;4.32;98.44;101377.13;4954577;28;20050;-49
2021/12/06 08:27:15;;;;;;;17.08;14.00;;;;;;;4.32;98.86;101377.13;4956371;28;20047;-53
2021/12/06 08:30:04;;;;;;;18.88;14.80;;;;;;;4.33;98.60;101373.38;4952000;28;20051;-48
2021/12/06 08:32:56;;;;;;;16.08;13.68;;;;;;;4.33;98.47;101376.09;4952838;28;20043;-49
2021/12/06 08:35:53;;;;;;;17.63;13.45;;;;;;;4.37;98.58;101369.22;4943067;29;20078;-49
2021/12/06 08:38:41;;;;;;;19.30;14.07;;;;;;;4.32;98.09;101374.44;4952703;28;20054;-52
2021/12/06 08:41:30;;;;;;;17.70;14.32;;;;;;;4.32;98.94;101374.44;4947375;29;20040;-50
2021/12/06 08:44:18;;;;;;;17.52;13.82;;;;;;;4.35;98.94;101379.41;4942232;29;20745;-53
2021/12/06 08:47:06;;;;;;;19.00;12.95;;;;;;;4.37;98.59;101388.13;4952539;29;20300;-54
2021/12/06 08:49:53;;;;;;;19.92;11.02;;;;;;;4.41;98.81;101394.75;4955342;28;20046;-48
2021/12/06 08:52:41;;;;;;;15.82;11.75;;;;;;;4.42;99.03;101396.41;4951808;29;20054;-52
2021/12/06 08:55:29;;;;;;;18.02;12.10;;;;;;;4.39;98.44;101399.53;4951972;29;20062;-50
2021/12/06 08:58:17;;;;;;;18.98;14.60;;;;;;;4.39;99.25;101402.22;4951447;29;20106;-50
2021/12/06 09:01:06;;;;;;;18.15;14.27;;;;;;;4.36;99.10;101397.25;4953315;28;20382;-49
2021/12/06 09:03:54;;;;;;;20.30;13.13;;;;;;;4.35;98.97;101406.38;4955880;29;20090;-50
2021/12/06 09:06:44;;;;;;;18.02;12.93;;;;;;;4.32;98.81;101402.25;4948563;29;20058;-50
2021/12/06 09:09:32;;;;;;;17.70;12.73;;;;;;;4.31;98.97;101402.47;4956326;29;20055;-47
2021/12/06 09:12:24;;;;;;;22.35;11.43;;;;;;;4.36;99.51;101400.78;4959118;28;20411;-48
2021/12/06 09:15:16;;;;;;;25.40;12.68;;;;;;;4.53;100.00;101403.84;4956088;29;20070;-50
2021/12/06 09:18:07;;;;;;;21.95;13.73;;;;;;;4.58;100.00;101405.91;4955625;29;20055;-53
2021/12/06 09:20:56;;;;;;;24.10;13.30;;;;;;;4.62;100.00;101409.84;4955696;29;20048;-52
2021/12/06 09:23:46;;;;;;;31.50;14.48;;;;;;;4.68;100.00;101409.78;4962887;28;20047;-54
2021/12/06 09:26:35;;;;;;;32.28;13.98;;;;;;;4.79;100.00;101415.56;4955503;29;20058;-54
2021/12/06 09:29:24;;;;;;;23.23;12.98;;;;;;;4.80;100.00;101412.63;4956586;29;20051;-50
2021/12/06 09:32:15;;;;;;;26.60;13.45;;;;;;;5.19;100.00;101409.94;4958019;28;20059;-47
2021/12/06 09:35:04;;;;;;;28.35;16.77;;;;;;;5.11;100.00;101411.03;4955642;29;20051;-49
2021/12/06 09:37:52;;;;;;;28.42;19.52;;;;;;;4.87;100.00;101408.03;4955924;28;20446;-51
2021/12/06 09:40:47;;;;;;;33.85;21.67;;;;;;;4.64;100.00;101410.41;4955343;29;20498;-53
2021/12/06 09:43:39;;;;;;;36.65;22.95;;;;;;;4.55;100.00;101412.56;4956549;28;20063;-52
2021/12/06 09:46:28;;;;;;;27.65;17.08;;;;;;;4.55;100.00;101414.44;4956089;29;20055;-47
2021/12/06 09:49:19;;;;;;;27.67;18.27;;;;;;;4.48;100.00;101409.88;4955859;29;20112;-50
2021/12/06 09:52:08;;;;;;;29.42;18.52;;;;;;;4.48;100.00;101412.56;4964944;28;20498;-51
2021/12/06 09:54:55;;;;;;;30.08;17.63;;;;;;;4.57;100.00;101410.47;4955761;29;20062;-49
2021/12/06 09:57:48;;;;;;;29.88;19.55;;;;;;;4.59;100.00;101415.63;4955665;28;20047;-52
2021/12/06 10:00:42;;;;;;;31.40;18.90;;;;;;;4.54;100.00;101416.28;4955575;29;20521;-50
2021/12/06 10:03:32;;;;;;;25.15;16.92;;;;;;;4.48;100.00;101415.28;4955500;29;20051;-51
2021/12/06 10:06:22;;;;;;;24.50;15.35;;;;;;;4.49;100.00;101418.78;4955438;29;20075;-51
2021/12/06 10:09:11;;;;;;;27.60;18.55;;;;;;;4.48;100.00;101412.56;4955117;29;20094;-50
2021/12/06 10:12:00;;;;;;;25.83;15.80;;;;;;;4.51;100.00;101407.78;4956376;28;20307;-54
2021/12/06 10:14:48;;;;;;;27.63;15.63;;;;;;;4.56;100.00;101411.50;4955549;28;20074;-46
2021/12/06 10:17:36;;;;;;;22.42;15.93;;;;;;;4.59;100.00;101407.53;4955771;29;20054;-47
2021/12/06 10:20:25;;;;;;;25.75;16.23;;;;;;;4.52;100.00;101396.75;4955416;29;20055;-46
2021/12/06 10:23:14;;;;;;;23.55;15.65;;;;;;;4.58;100.00;101406.72;4956285;28;20062;-48
2021/12/06 10:26:02;;;;;;;24.20;18.13;;;;;;;4.46;100.00;101386.84;4955175;29;20454;-43
2021/12/06 10:28:56;;;;;;;25.80;19.15;;;;;;;4.42;99.75;101385.59;4954775;29;20051;-43
2021/12/06 10:31:43;;;;;;;23.65;15.57;;;;;;;4.55;100.00;101374.78;4955790;28;20050;-44
2021/12/06 10:34:31;;;;;;;22.13;14.70;;;;;;;4.67;100.00;101372.22;4954235;28;20054;-45
2021/12/06 10:37:36;;;;;;;19.92;12.52;;;;;;;4.68;100.00;101363.06;4954932;29;20134;-47
2021/12/06 10:40:33;;;;;;;23.40;14.32;;;;;;;4.70;100.00;101375.31;4954870;28;20055;-48
2021/12/06 10:43:21;;;;;;;23.38;13.15;;;;;;;4.72;100.00;101368.88;4955629;28;20047;-48
2021/12/06 10:46:09;;;;;;;18.17;11.15;;;;;;;5.04;100.00;101375.94;4950498;29;20059;-51
2021/12/06 10:49:01;;;;;;;20.10;11.35;;;;;;;5.40;100.00;101366.34;4954464;29;20130;-50
2021/12/06 10:51:54;;;;;;;23.50;16.10;;;;;;;5.33;100.00;101354.75;4955935;28;20059;-47
2021/12/06 10:54:43;;;;;;;20.30;12.45;;;;;;;5.20;100.00;101339.50;4953771;28;20449;-46
2021/12/06 10:57:49;;;;;;;24.63;17.77;;;;;;;5.08;100.00;101330.44;4953637;29;20054;-48
2021/12/06 11:01:14;;;;;;;22.35;15.68;;;;;;;4.96;100.00;101327.59;4954685;28;20043;-50
2021/12/06 11:04:06;;;;;;;16.52;8.65;;;;;;;5.27;100.00;101323.22;4954621;28;20055;-47
2021/12/06 11:07:01;;;;;;;20.63;13.43;;;;;;;5.27;100.00;101317.84;4954392;28;20134;-51
2021/12/06 11:09:49;;;;;;;15.75;8.50;;;;;;;5.24;100.00;101307.44;4941370;28;20109;-48
2021/12/06 11:12:36;;;;;;;22.90;17.38;;;;;;;4.88;100.00;101308.97;4951142;28;20553;-48
2021/12/06 11:15:24;;;;;;;24.58;17.67;;;;;;;4.60;100.00;101302.09;4954143;28;20046;-47
2021/12/06 11:18:11;;;;;;;22.48;17.08;;;;;;;4.51;100.00;101303.38;4954071;29;20047;-48
2021/12/06 11:21:00;;;;;;;19.10;13.32;;;;;;;4.54;100.00;101297.53;4954156;28;20057;-43
2021/12/06 11:24:00;;;;;;;19.20;13.75;;;;;;;4.73;100.00;101300.34;4953698;29;20447;-49
2021/12/06 11:27:03;;;;;;;18.52;12.73;;;;;;;5.03;100.00;101287.06;4953775;29;20501;-49
2021/12/06 11:30:02;;;;;;;17.92;11.90;;;;;;;5.31;100.00;101290.13;4954197;29;20051;-52
2021/12/06 11:32:54;;;;;;;16.30;7.72;;;;;;;5.76;100.00;101278.25;4955155;28;20055;-52
2021/12/06 11:35:41;;;;;;;15.13;9.70;;;;;;;5.88;100.00;101279.16;4952669;29;20490;-49
2021/12/06 11:38:32;;;;;;;15.25;9.48;;;;;;;5.75;100.00;101272.03;4952913;29;20055;-46
2021/12/06 11:41:20;;;;;;;21.13;14.52;;;;;;;5.32;100.00;101278.28;4950110;29;20584;-50
2021/12/06 11:44:28;;;;;;;15.93;9.70;;;;;;;5.36;100.00;101275.13;4953417;28;20070;-53
2021/12/06 11:47:19;;;;;;;16.00;10.80;;;;;;;5.47;100.00;101269.81;4953216;29;20555;-47
2021/12/06 11:50:06;;;;;;;17.33;12.50;;;;;;;5.31;100.00;101264.97;4945895;28;20512;-50
2021/12/06 11:52:56;;;;;;;22.83;15.65;;;;;;;5.02;100.00;101267.31;4952314;29;20039;-50
2021/12/06 11:55:49;;;;;;;24.50;17.02;;;;;;;4.78;100.00;101268.13;4956750;28;20358;-50
2021/12/06 11:58:51;;;;;;;23.23;16.13;;;;;;;4.90;100.00;101259.09;4952178;29;20096;-46
2021/12/06 12:01:55;;;;;;;19.42;13.18;;;;;;;4.84;100.00;101243.78;4942766;29;20066;-50
2021/12/06 12:04:43;;;;;;;14.38;9.25;;;;;;;5.27;100.00;101253.81;4956867;28;20412;-53
2021/12/06 12:07:55;;;;;;;19.17;13.45;;;;;;;5.07;100.00;101243.16;4952435;28;20065;-49
2021/12/06 12:10:44;;;;;;;16.10;11.13;;;;;;;5.03;100.00;101241.97;4952762;29;20055;-50
2021/12/06 12:13:35;;;;;;;22.58;17.23;;;;;;;4.86;100.00;101236.28;4953107;28;20568;-48
2021/12/06 12:16:24;;;;;;;21.92;17.05;;;;;;;4.72;100.00;101234.75;4952587;29;20055;-51
2021/12/06 12:19:12;;;;;;;16.38;11.77;;;;;;;4.65;100.00;101229.38;4952540;29;20113;-48
2021/12/06 12:22:00;;;;;;;14.57;9.77;;;;;;;4.84;100.00;101224.06;4952609;29;20041;-53
2021/12/06 12:24:52;;;;;;;17.02;11.45;;;;;;;4.91;100.00;101228.34;4953555;28;20055;-47
2021/12/06 12:30:32;;;;;;;9.85;5.18;;;;;;;5.23;100.00;101224.75;4607652;28;10000025;-48
2021/12/06 12:33:22;;;;;;;12.55;7.20;;;;;;;5.72;100.00;101217.56;4955000;28;20141;-49
2021/12/06 12:36:12;;;;;;;11.93;8.25;;;;;;;6.04;100.00;101217.41;4951198;28;20059;-50
2021/12/06 12:39:00;;;;;;;11.30;6.45;;;;;;;5.73;100.00;101219.25;4949165;29;20082;-49
2021/12/06 12:41:53;;;;;;;12.60;7.85;;;;;;;6.00;100.00;101208.94;4950688;29;20417;-49
2021/12/06 12:44:52;;;;;;;14.20;10.65;;;;;;;5.60;100.00;101192.34;4950305;29;20058;-46
2021/12/06 12:47:43;;;;;;;11.40;8.13;;;;;;;5.80;100.00;101181.28;4950654;28;20101;-49
2021/12/06 12:50:31;;;;;;;14.65;10.70;;;;;;;5.47;100.00;101180.63;4949508;29;20127;-51
2021/12/06 12:53:20;;;;;;;10.23;4.90;;;;;;;5.46;100.00;101178.16;4950413;29;20055;-47
2021/12/06 12:56:27;;;;;;;10.18;6.05;;;;;;;5.50;100.00;101196.41;4951114;28;20051;-51
2021/12/06 12:59:43;;;;;;;10.10;6.30;;;;;;;5.78;100.00;101203.16;4950605;28;20059;-50
2021/12/06 13:02:35;;;;;;;11.95;9.27;;;;;;;5.59;100.00;101185.31;4950531;29;20062;-51
2021/12/06 13:05:29;;;;;;;13.10;10.00;;;;;;;5.65;100.00;101176.28;4938634;28;20055;-50
2021/12/06 13:08:04;;;;;;;11.60;8.95;;;;;;;5.43;100.00;101165.91;4976768;28;20558;-50
2021/12/06 13:10:54;;;;;;;15.70;10.23;;;;;;;5.11;100.00;101160.66;4944951;29;20059;-48
2021/12/06 13:13:49;;;;;;;10.50;5.50;;;;;;;5.38;100.00;101146.03;4949690;28;20044;-51